sensor_id;sensor_type;location;lat;lon;timestamp;P1;durP1;ratioP1;P2;durP2;ratioP2
13743;SDS011;6943;52.368;9.966;2022-12-07T00:00:54;19.47;;;14.47;;
13743;SDS011;6943;52.368;9.966;2022-12-07T00:03:28;22.53;;;16.43;;
13743;SDS011;6943;52.368;9.966;2022-12-07T00:05:56;23.47;;;16.57;;
13743;SDS011;6943;52.368;9.966;2022-12-07T00:08:23;21.80;;;16.23;;
13743;SDS011;6943;52.368;9.966;2022-12-07T00:10:48;22.10;;;15.73;;
13743;SDS011;6943;52.368;9.966;2022-12-07T00:13:14;22.47;;;16.20;;
13743;SDS011;6943;52.368;9.966;2022-12-07T00:15:39;25.17;;;15.87;;
13743;SDS011;6943;52.368;9.966;2022-12-07T00:18:05;25.27;;;16.80;;
13743;SDS011;6943;52.368;9.966;2022-12-07T00:20:30;23.93;;;16.27;;
13743;SDS011;6943;52.368;9.966;2022-12-07T00:22:56;24.67;;;16.87;;
13743;SDS011;6943;52.368;9.966;2022-12-07T00:25:21;25.03;;;16.87;;
13743;SDS011;6943;52.368;9.966;2022-12-07T00:27:47;23.70;;;17.03;;
13743;SDS011;6943;52.368;9.966;2022-12-07T00:30:12;23.57;;;17.40;;
13743;SDS011;6943;52.368;9.966;2022-12-07T00:32:38;28.60;;;16.37;;
13743;SDS011;6943;52.368;9.966;2022-12-07T00:35:03;24.77;;;16.80;;
13743;SDS011;6943;52.368;9.966;2022-12-07T00:37:29;24.97;;;17.27;;
13743;SDS011;6943;52.368;9.966;2022-12-07T00:39:55;26.23;;;17.70;;
13743;SDS011;6943;52.368;9.966;2022-12-07T00:42:20;26.47;;;17.20;;
13743;SDS011;6943;52.368;9.966;2022-12-07T00:44:46;24.33;;;16.43;;
13743;SDS011;6943;52.368;9.966;2022-12-07T00:47:11;27.17;;;17.80;;
13743;SDS011;6943;52.368;9.966;2022-12-07T00:49:37;25.70;;;17.67;;
13743;SDS011;6943;52.368;9.966;2022-12-07T00:52:02;25.93;;;18.10;;
13743;SDS011;6943;52.368;9.966;2022-12-07T00:54:28;23.77;;;17.47;;
13743;SDS011;6943;52.368;9.966;2022-12-07T00:56:54;28.00;;;17.90;;
13743;SDS011;6943;52.368;9.966;2022-12-07T00:59:19;26.93;;;17.97;;
13743;SDS011;6943;52.368;9.966;2022-12-07T01:01:44;25.67;;;16.17;;
13743;SDS011;6943;52.368;9.966;2022-12-07T01:04:10;24.77;;;17.40;;
13743;SDS011;6943;52.368;9.966;2022-12-07T01:06:36;25.50;;;17.60;;
13743;SDS011;6943;52.368;9.966;2022-12-07T01:09:01;24.27;;;16.97;;
13743;SDS011;6943;52.368;9.966;2022-12-07T01:11:28;23.93;;;16.30;;
13743;SDS011;6943;52.368;9.966;2022-12-07T01:13:55;25.17;;;17.47;;
13743;SDS011;6943;52.368;9.966;2022-12-07T01:16:23;25.83;;;17.93;;
13743;SDS011;6943;52.368;9.966;2022-12-07T01:18:51;25.13;;;17.83;;
13743;SDS011;6943;52.368;9.966;2022-12-07T01:21:22;24.87;;;17.70;;
13743;SDS011;6943;52.368;9.966;2022-12-07T01:23:49;27.37;;;17.07;;
13743;SDS011;6943;52.368;9.966;2022-12-07T01:26:16;23.90;;;16.93;;
13743;SDS011;6943;52.368;9.966;2022-12-07T01:28:44;23.60;;;16.37;;
13743;SDS011;6943;52.368;9.966;2022-12-07T01:31:12;25.33;;;17.13;;
13743;SDS011;6943;52.368;9.966;2022-12-07T01:33:40;25.30;;;16.53;;
13743;SDS011;6943;52.368;9.966;2022-12-07T01:36:08;25.23;;;17.43;;
13743;SDS011;6943;52.368;9.966;2022-12-07T01:38:53;24.03;;;16.97;;
13743;SDS011;6943;52.368;9.966;2022-12-07T01:41:21;24.17;;;16.50;;
13743;SDS011;6943;52.368;9.966;2022-12-07T01:44:08;27.60;;;18.43;;
13743;SDS011;6943;52.368;9.966;2022-12-07T01:46:38;23.17;;;16.00;;
13743;SDS011;6943;52.368;9.966;2022-12-07T01:49:05;24.93;;;16.13;;
13743;SDS011;6943;52.368;9.966;2022-12-07T01:51:33;23.13;;;16.57;;
13743;SDS011;6943;52.368;9.966;2022-12-07T01:53:59;24.03;;;15.93;;
13743;SDS011;6943;52.368;9.966;2022-12-07T01:56:26;23.20;;;15.47;;
13743;SDS011;6943;52.368;9.966;2022-12-07T01:58:54;23.20;;;16.23;;
13743;SDS011;6943;52.368;9.966;2022-12-07T02:01:21;22.63;;;15.27;;
13743;SDS011;6943;52.368;9.966;2022-12-07T02:03:46;21.60;;;16.30;;
13743;SDS011;6943;52.368;9.966;2022-12-07T02:06:14;22.07;;;16.47;;
13743;SDS011;6943;52.368;9.966;2022-12-07T02:08:43;21.77;;;16.63;;
13743;SDS011;6943;52.368;9.966;2022-12-07T02:11:09;21.87;;;17.30;;
13743;SDS011;6943;52.368;9.966;2022-12-07T02:13:36;22.87;;;16.70;;
13743;SDS011;6943;52.368;9.966;2022-12-07T02:16:21;22.83;;;16.33;;
13743;SDS011;6943;52.368;9.966;2022-12-07T02:27:24;21.10;;;15.40;;
13743;SDS011;6943;52.368;9.966;2022-12-07T02:30:08;18.97;;;14.53;;
13743;SDS011;6943;52.368;9.966;2022-12-07T02:41:07;17.60;;;13.23;;
13743;SDS011;6943;52.368;9.966;2022-12-07T02:43:50;19.67;;;15.27;;
13743;SDS011;6943;52.368;9.966;2022-12-07T02:46:27;19.70;;;14.53;;
13743;SDS011;6943;52.368;9.966;2022-12-07T02:48:55;20.73;;;14.60;;
13743;SDS011;6943;52.368;9.966;2022-12-07T02:51:21;18.37;;;14.40;;
13743;SDS011;6943;52.368;9.966;2022-12-07T02:53:47;19.47;;;13.60;;
13743;SDS011;6943;52.368;9.966;2022-12-07T02:56:23;23.90;;;13.57;;
13743;SDS011;6943;52.368;9.966;2022-12-07T02:59:19;17.77;;;14.40;;
13743;SDS011;6943;52.368;9.966;2022-12-07T03:07:29;19.53;;;14.60;;
13743;SDS011;6943;52.368;9.966;2022-12-07T03:10:26;17.60;;;13.90;;
13743;SDS011;6943;52.368;9.966;2022-12-07T03:15:39;21.57;;;15.03;;
13743;SDS011;6943;52.368;9.966;2022-12-07T03:18:16;20.40;;;12.70;;
13743;SDS011;6943;52.368;9.966;2022-12-07T03:20:44;18.70;;;13.80;;
13743;SDS011;6943;52.368;9.966;2022-12-07T03:23:13;19.20;;;13.50;;
13743;SDS011;6943;52.368;9.966;2022-12-07T03:25:43;17.80;;;13.57;;
13743;SDS011;6943;52.368;9.966;2022-12-07T03:28:14;18.40;;;12.10;;
13743;SDS011;6943;52.368;9.966;2022-12-07T03:30:44;18.43;;;12.60;;
13743;SDS011;6943;52.368;9.966;2022-12-07T03:33:12;17.57;;;12.67;;
13743;SDS011;6943;52.368;9.966;2022-12-07T03:35:48;18.97;;;12.87;;
13743;SDS011;6943;52.368;9.966;2022-12-07T03:38:28;16.37;;;12.60;;
13743;SDS011;6943;52.368;9.966;2022-12-07T03:41:02;19.10;;;12.50;;
13743;SDS011;6943;52.368;9.966;2022-12-07T03:43:56;17.50;;;11.97;;
13743;SDS011;6943;52.368;9.966;2022-12-07T03:49:12;14.60;;;11.17;;
13743;SDS011;6943;52.368;9.966;2022-12-07T03:57:16;17.30;;;10.70;;
13743;SDS011;6943;52.368;9.966;2022-12-07T03:59:43;15.83;;;10.33;;
13743;SDS011;6943;52.368;9.966;2022-12-07T04:02:10;18.37;;;10.97;;
13743;SDS011;6943;52.368;9.966;2022-12-07T04:04:38;16.90;;;10.07;;
13743;SDS011;6943;52.368;9.966;2022-12-07T04:07:04;16.30;;;10.83;;
13743;SDS011;6943;52.368;9.966;2022-12-07T04:09:30;14.87;;;9.90;;
13743;SDS011;6943;52.368;9.966;2022-12-07T04:11:55;14.40;;;9.70;;
13743;SDS011;6943;52.368;9.966;2022-12-07T04:14:21;16.80;;;10.17;;
13743;SDS011;6943;52.368;9.966;2022-12-07T04:16:51;13.07;;;9.07;;
13743;SDS011;6943;52.368;9.966;2022-12-07T04:19:19;16.43;;;10.53;;
13743;SDS011;6943;52.368;9.966;2022-12-07T04:21:46;14.43;;;10.07;;
13743;SDS011;6943;52.368;9.966;2022-12-07T04:24:12;13.67;;;9.97;;
13743;SDS011;6943;52.368;9.966;2022-12-07T04:26:39;14.83;;;9.57;;
13743;SDS011;6943;52.368;9.966;2022-12-07T04:29:06;15.00;;;9.70;;
13743;SDS011;6943;52.368;9.966;2022-12-07T04:31:32;11.20;;;9.03;;
13743;SDS011;6943;52.368;9.966;2022-12-07T04:33:58;13.27;;;9.40;;
13743;SDS011;6943;52.368;9.966;2022-12-07T04:36:23;13.30;;;8.83;;
13743;SDS011;6943;52.368;9.966;2022-12-07T04:38:49;17.87;;;10.07;;
13743;SDS011;6943;52.368;9.966;2022-12-07T04:41:14;15.57;;;10.97;;
13743;SDS011;6943;52.368;9.966;2022-12-07T04:43:40;17.33;;;10.73;;
13743;SDS011;6943;52.368;9.966;2022-12-07T04:46:05;19.27;;;10.30;;
13743;SDS011;6943;52.368;9.966;2022-12-07T04:48:31;15.57;;;9.53;;
13743;SDS011;6943;52.368;9.966;2022-12-07T04:50:57;19.00;;;10.30;;
13743;SDS011;6943;52.368;9.966;2022-12-07T04:53:23;16.47;;;9.23;;
13743;SDS011;6943;52.368;9.966;2022-12-07T04:55:48;12.63;;;8.63;;
13743;SDS011;6943;52.368;9.966;2022-12-07T04:58:14;12.57;;;8.97;;
13743;SDS011;6943;52.368;9.966;2022-12-07T05:00:39;14.10;;;9.53;;
13743;SDS011;6943;52.368;9.966;2022-12-07T05:03:05;15.30;;;9.40;;
13743;SDS011;6943;52.368;9.966;2022-12-07T05:05:31;12.77;;;9.00;;
13743;SDS011;6943;52.368;9.966;2022-12-07T05:07:57;16.30;;;10.40;;
13743;SDS011;6943;52.368;9.966;2022-12-07T05:10:22;15.73;;;9.43;;
13743;SDS011;6943;52.368;9.966;2022-12-07T05:12:48;14.83;;;9.37;;
13743;SDS011;6943;52.368;9.966;2022-12-07T05:15:14;14.53;;;9.20;;
13743;SDS011;6943;52.368;9.966;2022-12-07T05:17:40;14.30;;;9.27;;
13743;SDS011;6943;52.368;9.966;2022-12-07T05:20:06;15.37;;;9.63;;
13743;SDS011;6943;52.368;9.966;2022-12-07T05:22:32;13.57;;;9.17;;
13743;SDS011;6943;52.368;9.966;2022-12-07T05:24:58;15.63;;;9.10;;
13743;SDS011;6943;52.368;9.966;2022-12-07T05:27:23;14.83;;;8.90;;
13743;SDS011;6943;52.368;9.966;2022-12-07T05:29:49;14.60;;;8.73;;
13743;SDS011;6943;52.368;9.966;2022-12-07T05:32:16;17.40;;;10.50;;
13743;SDS011;6943;52.368;9.966;2022-12-07T05:34:42;16.97;;;9.87;;
13743;SDS011;6943;52.368;9.966;2022-12-07T05:37:07;18.67;;;9.60;;
13743;SDS011;6943;52.368;9.966;2022-12-07T05:39:33;18.50;;;10.60;;
13743;SDS011;6943;52.368;9.966;2022-12-07T05:41:58;17.13;;;10.30;;
13743;SDS011;6943;52.368;9.966;2022-12-07T05:44:40;16.40;;;9.87;;
13743;SDS011;6943;52.368;9.966;2022-12-07T05:47:10;17.47;;;11.63;;
13743;SDS011;6943;52.368;9.966;2022-12-07T05:49:36;17.17;;;9.87;;
13743;SDS011;6943;52.368;9.966;2022-12-07T05:52:02;16.90;;;10.47;;
13743;SDS011;6943;52.368;9.966;2022-12-07T05:54:28;19.23;;;10.20;;
13743;SDS011;6943;52.368;9.966;2022-12-07T05:56:54;15.57;;;9.23;;
13743;SDS011;6943;52.368;9.966;2022-12-07T05:59:20;16.87;;;10.47;;
13743;SDS011;6943;52.368;9.966;2022-12-07T06:01:55;14.70;;;9.73;;
13743;SDS011;6943;52.368;9.966;2022-12-07T06:04:27;15.57;;;9.53;;
13743;SDS011;6943;52.368;9.966;2022-12-07T06:06:54;15.60;;;9.33;;
13743;SDS011;6943;52.368;9.966;2022-12-07T06:09:22;16.37;;;8.77;;
13743;SDS011;6943;52.368;9.966;2022-12-07T06:11:48;17.70;;;9.00;;
13743;SDS011;6943;52.368;9.966;2022-12-07T06:14:32;15.83;;;8.30;;
13743;SDS011;6943;52.368;9.966;2022-12-07T06:16:58;17.37;;;8.83;;
13743;SDS011;6943;52.368;9.966;2022-12-07T06:19:24;16.13;;;8.90;;
13743;SDS011;6943;52.368;9.966;2022-12-07T06:21:50;12.63;;;8.70;;
13743;SDS011;6943;52.368;9.966;2022-12-07T06:24:16;15.67;;;8.03;;
13743;SDS011;6943;52.368;9.966;2022-12-07T06:26:42;10.80;;;7.63;;
13743;SDS011;6943;52.368;9.966;2022-12-07T06:29:08;12.37;;;7.73;;
13743;SDS011;6943;52.368;9.966;2022-12-07T06:31:34;12.83;;;8.30;;
13743;SDS011;6943;52.368;9.966;2022-12-07T06:34:01;13.43;;;8.23;;
13743;SDS011;6943;52.368;9.966;2022-12-07T06:36:28;13.17;;;7.90;;
13743;SDS011;6943;52.368;9.966;2022-12-07T06:38:54;11.80;;;8.80;;
13743;SDS011;6943;52.368;9.966;2022-12-07T06:41:20;15.10;;;8.70;;
13743;SDS011;6943;52.368;9.966;2022-12-07T06:43:46;16.63;;;8.70;;
13743;SDS011;6943;52.368;9.966;2022-12-07T06:46:12;14.43;;;9.03;;
13743;SDS011;6943;52.368;9.966;2022-12-07T06:48:39;16.03;;;9.13;;
13743;SDS011;6943;52.368;9.966;2022-12-07T06:51:04;14.43;;;8.80;;
13743;SDS011;6943;52.368;9.966;2022-12-07T06:53:30;13.57;;;8.03;;
13743;SDS011;6943;52.368;9.966;2022-12-07T06:55:55;10.47;;;8.00;;
13743;SDS011;6943;52.368;9.966;2022-12-07T06:58:21;13.53;;;7.87;;
13743;SDS011;6943;52.368;9.966;2022-12-07T07:00:47;13.30;;;8.63;;
13743;SDS011;6943;52.368;9.966;2022-12-07T07:03:14;15.03;;;8.47;;
13743;SDS011;6943;52.368;9.966;2022-12-07T07:05:39;15.27;;;8.07;;
13743;SDS011;6943;52.368;9.966;2022-12-07T07:08:05;14.33;;;8.17;;
13743;SDS011;6943;52.368;9.966;2022-12-07T07:10:30;11.97;;;8.07;;
13743;SDS011;6943;52.368;9.966;2022-12-07T07:12:56;13.87;;;7.37;;
13743;SDS011;6943;52.368;9.966;2022-12-07T07:15:21;12.40;;;6.63;;
13743;SDS011;6943;52.368;9.966;2022-12-07T07:17:47;11.73;;;6.27;;
13743;SDS011;6943;52.368;9.966;2022-12-07T07:20:13;7.80;;;5.17;;
13743;SDS011;6943;52.368;9.966;2022-12-07T07:22:38;12.67;;;5.00;;
13743;SDS011;6943;52.368;9.966;2022-12-07T07:25:04;9.07;;;5.27;;
13743;SDS011;6943;52.368;9.966;2022-12-07T07:27:29;9.27;;;5.23;;
13743;SDS011;6943;52.368;9.966;2022-12-07T07:29:55;12.27;;;5.73;;
13743;SDS011;6943;52.368;9.966;2022-12-07T07:32:20;9.33;;;5.17;;
13743;SDS011;6943;52.368;9.966;2022-12-07T07:34:47;9.07;;;4.80;;
13743;SDS011;6943;52.368;9.966;2022-12-07T07:37:12;9.67;;;4.80;;
13743;SDS011;6943;52.368;9.966;2022-12-07T07:39:38;8.90;;;4.83;;
13743;SDS011;6943;52.368;9.966;2022-12-07T07:42:04;6.90;;;5.03;;
13743;SDS011;6943;52.368;9.966;2022-12-07T07:44:30;10.67;;;5.10;;
13743;SDS011;6943;52.368;9.966;2022-12-07T07:46:56;15.50;;;5.43;;
13743;SDS011;6943;52.368;9.966;2022-12-07T07:49:21;8.60;;;4.73;;
13743;SDS011;6943;52.368;9.966;2022-12-07T07:51:47;14.00;;;5.43;;
13743;SDS011;6943;52.368;9.966;2022-12-07T07:54:13;12.03;;;5.27;;
13743;SDS011;6943;52.368;9.966;2022-12-07T07:56:39;10.27;;;4.67;;
13743;SDS011;6943;52.368;9.966;2022-12-07T07:59:04;10.27;;;4.30;;
13743;SDS011;6943;52.368;9.966;2022-12-07T08:01:30;9.23;;;4.93;;
13743;SDS011;6943;52.368;9.966;2022-12-07T08:03:55;7.77;;;4.40;;
13743;SDS011;6943;52.368;9.966;2022-12-07T08:06:21;7.87;;;4.70;;
13743;SDS011;6943;52.368;9.966;2022-12-07T08:08:46;8.03;;;4.20;;
13743;SDS011;6943;52.368;9.966;2022-12-07T08:11:12;9.60;;;4.90;;
13743;SDS011;6943;52.368;9.966;2022-12-07T08:13:37;8.47;;;5.23;;
13743;SDS011;6943;52.368;9.966;2022-12-07T08:16:04;9.23;;;6.40;;
13743;SDS011;6943;52.368;9.966;2022-12-07T08:18:31;9.33;;;5.73;;
13743;SDS011;6943;52.368;9.966;2022-12-07T08:21:01;7.70;;;4.47;;
13743;SDS011;6943;52.368;9.966;2022-12-07T08:23:28;11.67;;;5.57;;
13743;SDS011;6943;52.368;9.966;2022-12-07T08:25:54;6.53;;;4.90;;
13743;SDS011;6943;52.368;9.966;2022-12-07T08:28:19;10.73;;;4.30;;
13743;SDS011;6943;52.368;9.966;2022-12-07T08:30:45;10.80;;;4.20;;
13743;SDS011;6943;52.368;9.966;2022-12-07T08:33:10;7.50;;;3.60;;
13743;SDS011;6943;52.368;9.966;2022-12-07T08:35:36;8.23;;;4.03;;
13743;SDS011;6943;52.368;9.966;2022-12-07T08:38:02;9.67;;;2.90;;
13743;SDS011;6943;52.368;9.966;2022-12-07T08:40:28;9.80;;;4.00;;
13743;SDS011;6943;52.368;9.966;2022-12-07T08:42:54;11.27;;;3.97;;
13743;SDS011;6943;52.368;9.966;2022-12-07T08:45:20;10.43;;;4.10;;
13743;SDS011;6943;52.368;9.966;2022-12-07T08:47:50;8.43;;;4.83;;
13743;SDS011;6943;52.368;9.966;2022-12-07T08:50:22;11.57;;;4.27;;
13743;SDS011;6943;52.368;9.966;2022-12-07T08:52:49;7.00;;;4.10;;
13743;SDS011;6943;52.368;9.966;2022-12-07T08:55:17;8.27;;;4.20;;
13743;SDS011;6943;52.368;9.966;2022-12-07T08:57:43;9.17;;;5.20;;
13743;SDS011;6943;52.368;9.966;2022-12-07T09:00:09;10.73;;;4.63;;
13743;SDS011;6943;52.368;9.966;2022-12-07T09:02:35;9.17;;;5.17;;
13743;SDS011;6943;52.368;9.966;2022-12-07T09:05:01;9.17;;;3.87;;
13743;SDS011;6943;52.368;9.966;2022-12-07T09:07:27;9.33;;;4.53;;
13743;SDS011;6943;52.368;9.966;2022-12-07T09:09:52;9.43;;;4.90;;
13743;SDS011;6943;52.368;9.966;2022-12-07T09:12:18;8.73;;;4.13;;
13743;SDS011;6943;52.368;9.966;2022-12-07T09:14:43;8.77;;;4.03;;
13743;SDS011;6943;52.368;9.966;2022-12-07T09:17:10;10.03;;;4.37;;
13743;SDS011;6943;52.368;9.966;2022-12-07T09:19:37;8.23;;;3.97;;
13743;SDS011;6943;52.368;9.966;2022-12-07T09:22:03;6.10;;;3.47;;
13743;SDS011;6943;52.368;9.966;2022-12-07T09:24:30;9.47;;;3.60;;
13743;SDS011;6943;52.368;9.966;2022-12-07T09:26:58;5.93;;;3.37;;
13743;SDS011;6943;52.368;9.966;2022-12-07T09:29:24;6.00;;;3.00;;
13743;SDS011;6943;52.368;9.966;2022-12-07T09:31:50;4.37;;;3.47;;
13743;SDS011;6943;52.368;9.966;2022-12-07T09:34:16;5.90;;;3.00;;
13743;SDS011;6943;52.368;9.966;2022-12-07T09:36:42;5.63;;;3.40;;
13743;SDS011;6943;52.368;9.966;2022-12-07T09:39:08;5.97;;;2.60;;
13743;SDS011;6943;52.368;9.966;2022-12-07T09:41:36;7.23;;;3.40;;
13743;SDS011;6943;52.368;9.966;2022-12-07T09:44:09;8.10;;;2.50;;
13743;SDS011;6943;52.368;9.966;2022-12-07T09:46:42;4.17;;;2.70;;
13743;SDS011;6943;52.368;9.966;2022-12-07T09:49:10;6.10;;;2.33;;
13743;SDS011;6943;52.368;9.966;2022-12-07T09:51:38;5.27;;;2.40;;
13743;SDS011;6943;52.368;9.966;2022-12-07T09:54:03;5.37;;;2.20;;
13743;SDS011;6943;52.368;9.966;2022-12-07T09:56:29;6.73;;;2.00;;
13743;SDS011;6943;52.368;9.966;2022-12-07T09:59:00;5.07;;;2.20;;
13743;SDS011;6943;52.368;9.966;2022-12-07T10:01:28;6.03;;;2.40;;
13743;SDS011;6943;52.368;9.966;2022-12-07T10:03:59;3.97;;;1.87;;
13743;SDS011;6943;52.368;9.966;2022-12-07T10:06:34;5.13;;;2.17;;
13743;SDS011;6943;52.368;9.966;2022-12-07T10:09:00;9.80;;;2.10;;
13743;SDS011;6943;52.368;9.966;2022-12-07T10:11:25;6.63;;;2.47;;
13743;SDS011;6943;52.368;9.966;2022-12-07T10:13:52;7.53;;;2.53;;
13743;SDS011;6943;52.368;9.966;2022-12-07T10:18:49;7.70;;;2.17;;
13743;SDS011;6943;52.368;9.966;2022-12-07T10:24:04;2.77;;;1.50;;
13743;SDS011;6943;52.368;9.966;2022-12-07T10:32:37;3.03;;;1.43;;
13743;SDS011;6943;52.368;9.966;2022-12-07T10:34:44;4.83;;;1.73;;
13743;SDS011;6943;52.368;9.966;2022-12-07T10:42:28;5.50;;;1.47;;
13743;SDS011;6943;52.368;9.966;2022-12-07T10:48:02;4.30;;;1.10;;
13743;SDS011;6943;52.368;9.966;2022-12-07T10:59:04;4.73;;;1.40;;
13743;SDS011;6943;52.368;9.966;2022-12-07T11:01:45;3.37;;;0.93;;
13743;SDS011;6943;52.368;9.966;2022-12-07T11:04:18;4.87;;;1.97;;
13743;SDS011;6943;52.368;9.966;2022-12-07T11:09:38;4.43;;;1.80;;
13743;SDS011;6943;52.368;9.966;2022-12-07T11:12:28;5.97;;;1.90;;
13743;SDS011;6943;52.368;9.966;2022-12-07T11:15:00;3.37;;;1.70;;
13743;SDS011;6943;52.368;9.966;2022-12-07T11:21:39;4.43;;;1.47;;
13743;SDS011;6943;52.368;9.966;2022-12-07T11:23:49;5.53;;;1.43;;
13743;SDS011;6943;52.368;9.966;2022-12-07T11:35:17;5.70;;;1.80;;
13743;SDS011;6943;52.368;9.966;2022-12-07T11:37:51;5.23;;;1.57;;
13743;SDS011;6943;52.368;9.966;2022-12-07T11:40:28;5.37;;;1.70;;
13743;SDS011;6943;52.368;9.966;2022-12-07T11:43:21;3.70;;;1.50;;
13743;SDS011;6943;52.368;9.966;2022-12-07T11:45:57;8.87;;;1.70;;
13743;SDS011;6943;52.368;9.966;2022-12-07T11:48:38;4.60;;;1.20;;
13743;SDS011;6943;52.368;9.966;2022-12-07T11:51:12;3.43;;;1.33;;
13743;SDS011;6943;52.368;9.966;2022-12-07T11:53:45;3.33;;;1.20;;
13743;SDS011;6943;52.368;9.966;2022-12-07T11:56:17;3.13;;;0.70;;
13743;SDS011;6943;52.368;9.966;2022-12-07T11:58:51;1.67;;;1.20;;
13743;SDS011;6943;52.368;9.966;2022-12-07T12:04:05;2.20;;;1.20;;
13743;SDS011;6943;52.368;9.966;2022-12-07T12:06:38;1.43;;;0.80;;
13743;SDS011;6943;52.368;9.966;2022-12-07T12:14:39;2.50;;;1.27;;
13743;SDS011;6943;52.368;9.966;2022-12-07T12:20:16;4.30;;;1.20;;
13743;SDS011;6943;52.368;9.966;2022-12-07T12:25:27;5.33;;;1.50;;
13743;SDS011;6943;52.368;9.966;2022-12-07T12:27:56;4.30;;;1.60;;
13743;SDS011;6943;52.368;9.966;2022-12-07T12:30:25;3.93;;;1.73;;
13743;SDS011;6943;52.368;9.966;2022-12-07T12:33:01;5.13;;;1.80;;
13743;SDS011;6943;52.368;9.966;2022-12-07T12:35:31;5.07;;;2.00;;
13743;SDS011;6943;52.368;9.966;2022-12-07T12:41:24;8.20;;;2.13;;
13743;SDS011;6943;52.368;9.966;2022-12-07T12:44:01;5.87;;;1.77;;
13743;SDS011;6943;52.368;9.966;2022-12-07T12:51:43;9.63;;;2.43;;
13743;SDS011;6943;52.368;9.966;2022-12-07T12:54:14;8.90;;;2.20;;
13743;SDS011;6943;52.368;9.966;2022-12-07T12:59:32;5.60;;;2.43;;
13743;SDS011;6943;52.368;9.966;2022-12-07T13:04:53;7.17;;;2.20;;
13743;SDS011;6943;52.368;9.966;2022-12-07T13:12:58;4.90;;;2.47;;
13743;SDS011;6943;52.368;9.966;2022-12-07T13:15:46;7.37;;;2.37;;
13743;SDS011;6943;52.368;9.966;2022-12-07T13:23:29;7.83;;;2.60;;
13743;SDS011;6943;52.368;9.966;2022-12-07T13:28:49;4.53;;;2.20;;
13743;SDS011;6943;52.368;9.966;2022-12-07T13:31:27;4.60;;;2.20;;
13743;SDS011;6943;52.368;9.966;2022-12-07T13:34:03;10.07;;;2.67;;
13743;SDS011;6943;52.368;9.966;2022-12-07T13:36:37;6.10;;;2.53;;
13743;SDS011;6943;52.368;9.966;2022-12-07T13:41:40;4.97;;;2.30;;
13743;SDS011;6943;52.368;9.966;2022-12-07T13:44:14;6.23;;;1.80;;
13743;SDS011;6943;52.368;9.966;2022-12-07T13:46:58;5.33;;;1.90;;
13743;SDS011;6943;52.368;9.966;2022-12-07T13:49:38;5.03;;;1.87;;
13743;SDS011;6943;52.368;9.966;2022-12-07T13:52:24;7.57;;;2.33;;
13743;SDS011;6943;52.368;9.966;2022-12-07T13:55:01;8.40;;;2.37;;
13743;SDS011;6943;52.368;9.966;2022-12-07T13:57:41;5.13;;;1.97;;
13743;SDS011;6943;52.368;9.966;2022-12-07T14:00:16;5.40;;;1.97;;
13743;SDS011;6943;52.368;9.966;2022-12-07T14:02:57;3.57;;;2.37;;
13743;SDS011;6943;52.368;9.966;2022-12-07T14:07:55;7.30;;;2.00;;
13743;SDS011;6943;52.368;9.966;2022-12-07T14:10:24;5.83;;;2.10;;
13743;SDS011;6943;52.368;9.966;2022-12-07T14:12:58;5.77;;;1.77;;
13743;SDS011;6943;52.368;9.966;2022-12-07T14:15:31;5.70;;;1.90;;
13743;SDS011;6943;52.368;9.966;2022-12-07T14:17:59;5.07;;;1.80;;
13743;SDS011;6943;52.368;9.966;2022-12-07T14:23:02;6.00;;;1.80;;
13743;SDS011;6943;52.368;9.966;2022-12-07T14:25:34;6.80;;;2.20;;
13743;SDS011;6943;52.368;9.966;2022-12-07T14:28:29;6.93;;;1.80;;
13743;SDS011;6943;52.368;9.966;2022-12-07T14:30:57;5.03;;;1.60;;
13743;SDS011;6943;52.368;9.966;2022-12-07T14:33:23;8.60;;;1.80;;
13743;SDS011;6943;52.368;9.966;2022-12-07T14:35:49;8.57;;;1.80;;
13743;SDS011;6943;52.368;9.966;2022-12-07T14:38:15;4.50;;;1.70;;
13743;SDS011;6943;52.368;9.966;2022-12-07T14:40:40;5.03;;;1.70;;
13743;SDS011;6943;52.368;9.966;2022-12-07T14:43:09;8.40;;;1.93;;
13743;SDS011;6943;52.368;9.966;2022-12-07T14:45:36;4.30;;;1.70;;
13743;SDS011;6943;52.368;9.966;2022-12-07T14:48:04;7.83;;;1.80;;
13743;SDS011;6943;52.368;9.966;2022-12-07T14:50:30;9.43;;;2.30;;
13743;SDS011;6943;52.368;9.966;2022-12-07T14:53:03;7.13;;;1.73;;
13743;SDS011;6943;52.368;9.966;2022-12-07T14:55:39;5.13;;;1.80;;
13743;SDS011;6943;52.368;9.966;2022-12-07T14:58:05;7.67;;;1.70;;
13743;SDS011;6943;52.368;9.966;2022-12-07T15:00:31;8.90;;;1.80;;
13743;SDS011;6943;52.368;9.966;2022-12-07T15:02:57;6.43;;;1.90;;
13743;SDS011;6943;52.368;9.966;2022-12-07T15:05:23;5.50;;;1.70;;
13743;SDS011;6943;52.368;9.966;2022-12-07T15:07:49;5.33;;;1.70;;
13743;SDS011;6943;52.368;9.966;2022-12-07T15:10:23;5.43;;;1.70;;
13743;SDS011;6943;52.368;9.966;2022-12-07T15:12:54;3.97;;;1.53;;
13743;SDS011;6943;52.368;9.966;2022-12-07T15:15:40;4.70;;;1.83;;
13743;SDS011;6943;52.368;9.966;2022-12-07T15:18:06;4.80;;;2.57;;
13743;SDS011;6943;52.368;9.966;2022-12-07T15:20:31;4.30;;;1.70;;
13743;SDS011;6943;52.368;9.966;2022-12-07T15:22:57;6.40;;;1.80;;
13743;SDS011;6943;52.368;9.966;2022-12-07T15:25:22;6.53;;;2.50;;
13743;SDS011;6943;52.368;9.966;2022-12-07T15:27:48;6.30;;;2.43;;
13743;SDS011;6943;52.368;9.966;2022-12-07T15:30:13;7.00;;;2.53;;
13743;SDS011;6943;52.368;9.966;2022-12-07T15:32:39;8.07;;;2.07;;
13743;SDS011;6943;52.368;9.966;2022-12-07T15:35:04;5.83;;;1.90;;
13743;SDS011;6943;52.368;9.966;2022-12-07T15:37:30;4.53;;;2.03;;
13743;SDS011;6943;52.368;9.966;2022-12-07T15:39:56;4.20;;;2.30;;
13743;SDS011;6943;52.368;9.966;2022-12-07T15:42:21;6.50;;;2.10;;
13743;SDS011;6943;52.368;9.966;2022-12-07T15:44:47;6.40;;;2.10;;
13743;SDS011;6943;52.368;9.966;2022-12-07T15:47:34;7.93;;;3.13;;
13743;SDS011;6943;52.368;9.966;2022-12-07T15:50:05;5.90;;;2.40;;
13743;SDS011;6943;52.368;9.966;2022-12-07T15:52:33;8.23;;;2.40;;
13743;SDS011;6943;52.368;9.966;2022-12-07T15:54:58;7.07;;;2.23;;
13743;SDS011;6943;52.368;9.966;2022-12-07T15:57:30;7.37;;;3.03;;
13743;SDS011;6943;52.368;9.966;2022-12-07T16:00:00;6.90;;;2.63;;
13743;SDS011;6943;52.368;9.966;2022-12-07T16:02:26;5.10;;;2.63;;
13743;SDS011;6943;52.368;9.966;2022-12-07T16:04:51;6.57;;;3.23;;
13743;SDS011;6943;52.368;9.966;2022-12-07T16:07:18;7.17;;;3.10;;
13743;SDS011;6943;52.368;9.966;2022-12-07T16:09:44;6.90;;;3.07;;
13743;SDS011;6943;52.368;9.966;2022-12-07T16:12:11;7.13;;;3.37;;
13743;SDS011;6943;52.368;9.966;2022-12-07T16:14:38;6.53;;;3.13;;
13743;SDS011;6943;52.368;9.966;2022-12-07T16:17:05;9.93;;;3.73;;
13743;SDS011;6943;52.368;9.966;2022-12-07T16:19:31;6.67;;;3.50;;
13743;SDS011;6943;52.368;9.966;2022-12-07T16:21:57;7.47;;;3.23;;
13743;SDS011;6943;52.368;9.966;2022-12-07T16:24:24;6.53;;;3.20;;
13743;SDS011;6943;52.368;9.966;2022-12-07T16:26:49;8.03;;;2.87;;
13743;SDS011;6943;52.368;9.966;2022-12-07T16:29:15;9.50;;;3.57;;
13743;SDS011;6943;52.368;9.966;2022-12-07T16:31:42;8.43;;;3.00;;
13743;SDS011;6943;52.368;9.966;2022-12-07T16:34:08;16.83;;;9.73;;
13743;SDS011;6943;52.368;9.966;2022-12-07T16:36:34;3.37;;;3.03;;
13743;SDS011;6943;52.368;9.966;2022-12-07T16:39:00;2.97;;;1.80;;
13743;SDS011;6943;52.368;9.966;2022-12-07T16:41:26;3.53;;;1.70;;
13743;SDS011;6943;52.368;9.966;2022-12-07T16:43:51;4.77;;;1.87;;
13743;SDS011;6943;52.368;9.966;2022-12-07T16:46:17;3.13;;;1.87;;
13743;SDS011;6943;52.368;9.966;2022-12-07T16:48:43;5.43;;;1.50;;
13743;SDS011;6943;52.368;9.966;2022-12-07T16:51:09;2.77;;;1.50;;
13743;SDS011;6943;52.368;9.966;2022-12-07T16:53:38;4.70;;;1.87;;
13743;SDS011;6943;52.368;9.966;2022-12-07T16:56:09;8.27;;;2.70;;
13743;SDS011;6943;52.368;9.966;2022-12-07T16:58:36;11.90;;;6.20;;
13743;SDS011;6943;52.368;9.966;2022-12-07T17:01:14;14.13;;;7.83;;
13743;SDS011;6943;52.368;9.966;2022-12-07T17:03:41;9.57;;;5.20;;
13743;SDS011;6943;52.368;9.966;2022-12-07T17:06:15;5.07;;;3.60;;